sensor_id;sensor_type;location;lat;lon;timestamp;temperature;humidity
674;DHT22;319;48.764;9.174;2022-11-11T00:01:44;9.00;99.90
674;DHT22;319;48.764;9.174;2022-11-11T00:04:11;9.00;99.90
674;DHT22;319;48.764;9.174;2022-11-11T00:06:37;8.90;99.90
674;DHT22;319;48.764;9.174;2022-11-11T00:09:04;9.00;99.90
674;DHT22;319;48.764;9.174;2022-11-11T00:11:32;8.90;99.90
674;DHT22;319;48.764;9.174;2022-11-11T00:13:59;8.90;99.90
674;DHT22;319;48.764;9.174;2022-11-11T00:16:26;9.00;99.90
674;DHT22;319;48.764;9.174;2022-11-11T00:19:13;8.90;99.90
674;DHT22;319;48.764;9.174;2022-11-11T00:21:57;9.00;99.90
674;DHT22;319;48.764;9.174;2022-11-11T00:24:41;9.00;99.90
674;DHT22;319;48.764;9.174;2022-11-11T00:27:27;8.90;99.90
674;DHT22;319;48.764;9.174;2022-11-11T00:29:54;8.90;99.90
674;DHT22;319;48.764;9.174;2022-11-11T00:32:21;8.90;99.90
674;DHT22;319;48.764;9.174;2022-11-11T00:34:53;8.90;99.90
674;DHT22;319;48.764;9.174;2022-11-11T00:37:38;8.90;99.90
674;DHT22;319;48.764;9.174;2022-11-11T00:40:06;8.80;99.90
674;DHT22;319;48.764;9.174;2022-11-11T00:42:34;8.80;99.90
674;DHT22;319;48.764;9.174;2022-11-11T00:45:02;8.80;99.90
674;DHT22;319;48.764;9.174;2022-11-11T00:47:29;8.80;99.90
674;DHT22;319;48.764;9.174;2022-11-11T00:50:15;8.80;99.90
674;DHT22;319;48.764;9.174;2022-11-11T00:52:59;8.80;99.90
674;DHT22;319;48.764;9.174;2022-11-11T00:55:27;8.80;99.90
674;DHT22;319;48.764;9.174;2022-11-11T00:57:55;8.70;99.90
674;DHT22;319;48.764;9.174;2022-11-11T01:00:22;8.70;99.90
674;DHT22;319;48.764;9.174;2022-11-11T01:02:49;8.70;99.90
674;DHT22;319;48.764;9.174;2022-11-11T01:05:16;8.60;99.90
674;DHT22;319;48.764;9.174;2022-11-11T01:07:42;8.70;99.90
674;DHT22;319;48.764;9.174;2022-11-11T01:10:09;8.70;99.90
674;DHT22;319;48.764;9.174;2022-11-11T01:12:36;8.60;99.90
674;DHT22;319;48.764;9.174;2022-11-11T01:15:05;8.60;99.90
674;DHT22;319;48.764;9.174;2022-11-11T01:17:32;8.60;99.90
674;DHT22;319;48.764;9.174;2022-11-11T01:19:59;8.60;99.90
674;DHT22;319;48.764;9.174;2022-11-11T01:22:27;8.60;99.90
674;DHT22;319;48.764;9.174;2022-11-11T01:24:54;8.50;99.90
674;DHT22;319;48.764;9.174;2022-11-11T01:27:20;8.50;99.90
674;DHT22;319;48.764;9.174;2022-11-11T01:29:47;8.50;99.90
674;DHT22;319;48.764;9.174;2022-11-11T01:32:15;8.60;99.90
674;DHT22;319;48.764;9.174;2022-11-11T01:34:42;8.50;99.90
674;DHT22;319;48.764;9.174;2022-11-11T01:37:09;8.50;99.90
674;DHT22;319;48.764;9.174;2022-11-11T01:39:35;8.50;99.90
674;DHT22;319;48.764;9.174;2022-11-11T01:42:02;8.50;99.90
674;DHT22;319;48.764;9.174;2022-11-11T01:44:44;8.50;99.90
674;DHT22;319;48.764;9.174;2022-11-11T01:47:11;8.50;99.90
674;DHT22;319;48.764;9.174;2022-11-11T01:49:47;8.60;99.90
674;DHT22;319;48.764;9.174;2022-11-11T01:52:16;8.60;99.90
674;DHT22;319;48.764;9.174;2022-11-11T01:54:47;8.50;99.90
674;DHT22;319;48.764;9.174;2022-11-11T01:57:27;8.50;99.90
674;DHT22;319;48.764;9.174;2022-11-11T02:00:02;8.50;99.90
674;DHT22;319;48.764;9.174;2022-11-11T02:02:33;8.50;99.90
674;DHT22;319;48.764;9.174;2022-11-11T02:05:06;8.40;99.90
674;DHT22;319;48.764;9.174;2022-11-11T02:07:52;8.40;99.90
674;DHT22;319;48.764;9.174;2022-11-11T02:10:23;8.30;99.90
674;DHT22;319;48.764;9.174;2022-11-11T02:12:50;8.30;99.90
674;DHT22;319;48.764;9.174;2022-11-11T02:15:35;8.40;99.90
674;DHT22;319;48.764;9.174;2022-11-11T02:18:03;8.40;99.90
674;DHT22;319;48.764;9.174;2022-11-11T02:20:35;8.40;99.90
674;DHT22;319;48.764;9.174;2022-11-11T02:23:06;8.40;99.90
674;DHT22;319;48.764;9.174;2022-11-11T02:25:38;8.40;99.90
674;DHT22;319;48.764;9.174;2022-11-11T02:28:06;8.40;99.90
674;DHT22;319;48.764;9.174;2022-11-11T02:30:37;8.40;99.90
674;DHT22;319;48.764;9.174;2022-11-11T02:33:04;8.40;99.90
674;DHT22;319;48.764;9.174;2022-11-11T02:35:33;8.40;99.90
674;DHT22;319;48.764;9.174;2022-11-11T02:38:01;8.40;99.90
674;DHT22;319;48.764;9.174;2022-11-11T02:40:36;8.40;99.90
674;DHT22;319;48.764;9.174;2022-11-11T02:43:03;8.40;99.90
674;DHT22;319;48.764;9.174;2022-11-11T02:45:30;8.30;99.90
674;DHT22;319;48.764;9.174;2022-11-11T02:47:57;8.30;99.90
674;DHT22;319;48.764;9.174;2022-11-11T02:50:24;8.30;99.90
674;DHT22;319;48.764;9.174;2022-11-11T02:52:50;8.30;99.90
674;DHT22;319;48.764;9.174;2022-11-11T02:55:17;8.30;99.90
674;DHT22;319;48.764;9.174;2022-11-11T02:57:46;8.40;99.90
674;DHT22;319;48.764;9.174;2022-11-11T03:00:14;8.40;99.90
674;DHT22;319;48.764;9.174;2022-11-11T03:02:41;8.40;99.90
674;DHT22;319;48.764;9.174;2022-11-11T03:05:08;8.30;99.90
674;DHT22;319;48.764;9.174;2022-11-11T03:07:34;8.30;99.90
674;DHT22;319;48.764;9.174;2022-11-11T03:10:01;8.30;99.90
674;DHT22;319;48.764;9.174;2022-11-11T03:12:28;8.30;99.90
674;DHT22;319;48.764;9.174;2022-11-11T03:14:56;8.30;99.90
674;DHT22;319;48.764;9.174;2022-11-11T03:17:23;8.30;99.90
674;DHT22;319;48.764;9.174;2022-11-11T03:20:05;8.00;99.90
674;DHT22;319;48.764;9.174;2022-11-11T03:23:00;8.30;99.90
674;DHT22;319;48.764;9.174;2022-11-11T03:25:28;8.20;99.90
674;DHT22;319;48.764;9.174;2022-11-11T03:28:06;8.20;99.90
674;DHT22;319;48.764;9.174;2022-11-11T03:30:34;8.20;99.90
674;DHT22;319;48.764;9.174;2022-11-11T03:33:01;8.20;99.90
674;DHT22;319;48.764;9.174;2022-11-11T03:35:29;8.20;99.90
674;DHT22;319;48.764;9.174;2022-11-11T03:37:56;8.20;99.90
674;DHT22;319;48.764;9.174;2022-11-11T03:40:41;8.20;99.90
674;DHT22;319;48.764;9.174;2022-11-11T03:43:08;8.20;99.90
674;DHT22;319;48.764;9.174;2022-11-11T03:45:36;8.30;99.90
674;DHT22;319;48.764;9.174;2022-11-11T03:48:03;8.20;99.90
674;DHT22;319;48.764;9.174;2022-11-11T03:50:31;8.20;99.90
674;DHT22;319;48.764;9.174;2022-11-11T03:52:58;8.20;99.90
674;DHT22;319;48.764;9.174;2022-11-11T03:55:25;8.20;99.90
674;DHT22;319;48.764;9.174;2022-11-11T03:57:51;8.20;99.90
674;DHT22;319;48.764;9.174;2022-11-11T04:00:20;8.10;99.90
674;DHT22;319;48.764;9.174;2022-11-11T04:02:49;8.20;99.90
674;DHT22;319;48.764;9.174;2022-11-11T04:05:34;8.10;99.90
674;DHT22;319;48.764;9.174;2022-11-11T04:08:19;8.10;99.90
674;DHT22;319;48.764;9.174;2022-11-11T04:11:08;8.10;99.90
674;DHT22;319;48.764;9.174;2022-11-11T04:13:36;8.10;99.90
674;DHT22;319;48.764;9.174;2022-11-11T04:16:32;8.10;99.90
674;DHT22;319;48.764;9.174;2022-11-11T04:19:00;8.00;99.90
674;DHT22;319;48.764;9.174;2022-11-11T04:21:44;8.00;99.90
674;DHT22;319;48.764;9.174;2022-11-11T04:24:13;8.00;99.90
674;DHT22;319;48.764;9.174;2022-11-11T04:26:55;8.00;99.90
674;DHT22;319;48.764;9.174;2022-11-11T04:29:22;8.00;99.90
674;DHT22;319;48.764;9.174;2022-11-11T04:31:55;8.00;99.90
674;DHT22;319;48.764;9.174;2022-11-11T04:34:41;8.00;99.90
674;DHT22;319;48.764;9.174;2022-11-11T04:37:08;8.00;99.90
674;DHT22;319;48.764;9.174;2022-11-11T04:39:35;8.00;99.90
674;DHT22;319;48.764;9.174;2022-11-11T04:42:20;8.00;99.90
674;DHT22;319;48.764;9.174;2022-11-11T04:44:47;8.00;99.90
674;DHT22;319;48.764;9.174;2022-11-11T04:47:31;8.00;99.90
674;DHT22;319;48.764;9.174;2022-11-11T04:50:00;8.00;99.90
674;DHT22;319;48.764;9.174;2022-11-11T04:52:28;8.00;99.90
674;DHT22;319;48.764;9.174;2022-11-11T04:54:55;8.00;99.90
674;DHT22;319;48.764;9.174;2022-11-11T04:57:41;8.00;99.90
674;DHT22;319;48.764;9.174;2022-11-11T05:00:10;8.00;99.90
674;DHT22;319;48.764;9.174;2022-11-11T05:02:37;8.00;99.90
674;DHT22;319;48.764;9.174;2022-11-11T05:05:24;7.90;99.90
674;DHT22;319;48.764;9.174;2022-11-11T05:07:51;7.90;99.90
674;DHT22;319;48.764;9.174;2022-11-11T05:10:36;8.00;99.90
674;DHT22;319;48.764;9.174;2022-11-11T05:13:03;8.00;99.90
674;DHT22;319;48.764;9.174;2022-11-11T05:15:47;8.00;99.90
674;DHT22;319;48.764;9.174;2022-11-11T05:18:32;7.50;99.90
674;DHT22;319;48.764;9.174;2022-11-11T05:21:20;7.90;99.90
674;DHT22;319;48.764;9.174;2022-11-11T05:23:48;7.90;99.90
674;DHT22;319;48.764;9.174;2022-11-11T05:26:32;7.90;99.90
674;DHT22;319;48.764;9.174;2022-11-11T05:28:59;8.00;99.90
674;DHT22;319;48.764;9.174;2022-11-11T05:31:26;7.90;99.90
674;DHT22;319;48.764;9.174;2022-11-11T05:33:53;7.90;99.90
674;DHT22;319;48.764;9.174;2022-11-11T05:36:21;7.90;99.90
674;DHT22;319;48.764;9.174;2022-11-11T05:38:48;7.80;99.90
674;DHT22;319;48.764;9.174;2022-11-11T05:41:15;7.90;99.90
674;DHT22;319;48.764;9.174;2022-11-11T05:43:42;7.80;99.90
674;DHT22;319;48.764;9.174;2022-11-11T05:46:08;7.80;99.90
674;DHT22;319;48.764;9.174;2022-11-11T05:48:35;7.80;99.90
674;DHT22;319;48.764;9.174;2022-11-11T05:51:24;7.80;99.90
674;DHT22;319;48.764;9.174;2022-11-11T05:53:56;7.80;99.90
674;DHT22;319;48.764;9.174;2022-11-11T05:56:23;7.80;99.90
674;DHT22;319;48.764;9.174;2022-11-11T05:58:50;7.70;99.90
674;DHT22;319;48.764;9.174;2022-11-11T06:01:19;7.70;99.90
674;DHT22;319;48.764;9.174;2022-11-11T06:03:46;7.80;99.90
674;DHT22;319;48.764;9.174;2022-11-11T06:06:13;7.80;99.90
674;DHT22;319;48.764;9.174;2022-11-11T06:08:41;7.80;99.90
674;DHT22;319;48.764;9.174;2022-11-11T06:11:08;7.80;99.90
674;DHT22;319;48.764;9.174;2022-11-11T06:13:34;7.70;99.90
674;DHT22;319;48.764;9.174;2022-11-11T06:16:02;7.70;99.90
674;DHT22;319;48.764;9.174;2022-11-11T06:18:29;7.80;99.90
674;DHT22;319;48.764;9.174;2022-11-11T06:20:56;7.70;99.90
674;DHT22;319;48.764;9.174;2022-11-11T06:23:24;7.70;99.90
674;DHT22;319;48.764;9.174;2022-11-11T06:25:55;7.80;99.90
674;DHT22;319;48.764;9.174;2022-11-11T06:28:42;7.90;99.90
674;DHT22;319;48.764;9.174;2022-11-11T06:31:10;7.90;99.90
674;DHT22;319;48.764;9.174;2022-11-11T06:33:38;7.80;99.90
674;DHT22;319;48.764;9.174;2022-11-11T06:36:06;7.80;99.90
674;DHT22;319;48.764;9.174;2022-11-11T06:38:33;7.80;99.90
674;DHT22;319;48.764;9.174;2022-11-11T06:41:01;7.80;99.90
674;DHT22;319;48.764;9.174;2022-11-11T06:43:28;7.80;99.90
674;DHT22;319;48.764;9.174;2022-11-11T06:45:55;7.80;99.90
674;DHT22;319;48.764;9.174;2022-11-11T06:48:23;7.90;99.90
674;DHT22;319;48.764;9.174;2022-11-11T06:50:50;8.00;99.90
674;DHT22;319;48.764;9.174;2022-11-11T06:53:18;8.00;99.90
674;DHT22;319;48.764;9.174;2022-11-11T06:55:45;8.00;99.90
674;DHT22;319;48.764;9.174;2022-11-11T06:58:15;8.00;99.90
674;DHT22;319;48.764;9.174;2022-11-11T07:00:43;8.10;99.90
674;DHT22;319;48.764;9.174;2022-11-11T07:03:12;8.10;99.90
674;DHT22;319;48.764;9.174;2022-11-11T07:05:39;8.20;99.90
674;DHT22;319;48.764;9.174;2022-11-11T07:08:08;8.20;99.90
674;DHT22;319;48.764;9.174;2022-11-11T07:10:37;8.30;99.90
674;DHT22;319;48.764;9.174;2022-11-11T07:13:04;8.30;99.90
674;DHT22;319;48.764;9.174;2022-11-11T07:15:32;8.30;99.90
674;DHT22;319;48.764;9.174;2022-11-11T07:18:00;8.40;99.90
674;DHT22;319;48.764;9.174;2022-11-11T07:20:27;8.50;99.90
674;DHT22;319;48.764;9.174;2022-11-11T07:22:53;8.60;99.90
674;DHT22;319;48.764;9.174;2022-11-11T07:25:20;8.60;99.90
674;DHT22;319;48.764;9.174;2022-11-11T07:27:47;8.70;99.90
674;DHT22;319;48.764;9.174;2022-11-11T07:30:14;8.80;99.90
674;DHT22;319;48.764;9.174;2022-11-11T07:32:45;8.90;99.90
674;DHT22;319;48.764;9.174;2022-11-11T07:35:12;8.90;99.90
674;DHT22;319;48.764;9.174;2022-11-11T07:37:40;9.00;99.90
674;DHT22;319;48.764;9.174;2022-11-11T07:40:08;9.10;99.90
674;DHT22;319;48.764;9.174;2022-11-11T07:42:36;9.20;99.90
674;DHT22;319;48.764;9.174;2022-11-11T07:45:03;9.30;99.90
674;DHT22;319;48.764;9.174;2022-11-11T07:47:30;9.30;99.90
674;DHT22;319;48.764;9.174;2022-11-11T07:50:00;9.30;99.90
674;DHT22;319;48.764;9.174;2022-11-11T07:52:27;9.40;99.90
674;DHT22;319;48.764;9.174;2022-11-11T07:54:54;9.60;99.90
674;DHT22;319;48.764;9.174;2022-11-11T07:57:20;9.70;99.90
674;DHT22;319;48.764;9.174;2022-11-11T07:59:47;9.80;99.90
674;DHT22;319;48.764;9.174;2022-11-11T08:02:14;9.80;99.90
674;DHT22;319;48.764;9.174;2022-11-11T08:04:41;9.90;99.90
674;DHT22;319;48.764;9.174;2022-11-11T08:07:09;10.10;99.90
674;DHT22;319;48.764;9.174;2022-11-11T08:09:36;10.10;99.90
674;DHT22;319;48.764;9.174;2022-11-11T08:12:03;10.20;99.90
674;DHT22;319;48.764;9.174;2022-11-11T08:14:54;10.30;99.90
674;DHT22;319;48.764;9.174;2022-11-11T08:17:21;10.40;99.90
674;DHT22;319;48.764;9.174;2022-11-11T08:19:47;10.30;99.90
674;DHT22;319;48.764;9.174;2022-11-11T08:22:15;10.10;99.90
674;DHT22;319;48.764;9.174;2022-11-11T08:24:54;10.20;99.90
674;DHT22;319;48.764;9.174;2022-11-11T08:27:27;10.30;99.90
674;DHT22;319;48.764;9.174;2022-11-11T08:33:05;10.80;99.90
674;DHT22;319;48.764;9.174;2022-11-11T08:35:34;10.70;99.90
674;DHT22;319;48.764;9.174;2022-11-11T08:38:03;11.80;99.90
674;DHT22;319;48.764;9.174;2022-11-11T08:40:36;10.70;99.90
674;DHT22;319;48.764;9.174;2022-11-11T08:43:02;10.80;99.90
674;DHT22;319;48.764;9.174;2022-11-11T08:45:29;10.80;99.90
674;DHT22;319;48.764;9.174;2022-11-11T08:47:56;10.80;99.90
674;DHT22;319;48.764;9.174;2022-11-11T08:50:23;10.90;99.90
674;DHT22;319;48.764;9.174;2022-11-11T08:52:50;10.90;99.90
674;DHT22;319;48.764;9.174;2022-11-11T08:55:19;10.90;99.90
674;DHT22;319;48.764;9.174;2022-11-11T08:57:46;10.90;99.90
674;DHT22;319;48.764;9.174;2022-11-11T09:00:18;10.80;99.90
674;DHT22;319;48.764;9.174;2022-11-11T09:02:45;10.90;99.90
674;DHT22;319;48.764;9.174;2022-11-11T09:05:12;10.90;99.90
674;DHT22;319;48.764;9.174;2022-11-11T09:07:39;11.00;99.90
674;DHT22;319;48.764;9.174;2022-11-11T09:10:07;11.20;99.90
674;DHT22;319;48.764;9.174;2022-11-11T09:12:38;11.30;99.90
674;DHT22;319;48.764;9.174;2022-11-11T09:15:05;11.50;99.90
674;DHT22;319;48.764;9.174;2022-11-11T09:17:33;11.80;99.90
674;DHT22;319;48.764;9.174;2022-11-11T09:20:00;12.40;99.90
674;DHT22;319;48.764;9.174;2022-11-11T09:22:27;12.20;99.90
674;DHT22;319;48.764;9.174;2022-11-11T09:24:53;12.40;99.90
674;DHT22;319;48.764;9.174;2022-11-11T09:27:20;12.70;99.90
674;DHT22;319;48.764;9.174;2022-11-11T09:29:49;13.10;99.90
674;DHT22;319;48.764;9.174;2022-11-11T09:32:15;13.30;99.70
674;DHT22;319;48.764;9.174;2022-11-11T09:34:42;13.20;99.40
674;DHT22;319;48.764;9.174;2022-11-11T09:37:09;13.30;99.50
674;DHT22;319;48.764;9.174;2022-11-11T09:39:36;13.40;99.30
674;DHT22;319;48.764;9.174;2022-11-11T09:42:09;13.40;99.40
674;DHT22;319;48.764;9.174;2022-11-11T09:44:56;13.50;99.40
674;DHT22;319;48.764;9.174;2022-11-11T09:47:36;13.30;99.40
674;DHT22;319;48.764;9.174;2022-11-11T09:50:07;13.00;99.50
674;DHT22;319;48.764;9.174;2022-11-11T09:52:38;13.00;99.80
674;DHT22;319;48.764;9.174;2022-11-11T09:55:14;13.10;99.90
674;DHT22;319;48.764;9.174;2022-11-11T09:57:45;13.10;99.90
674;DHT22;319;48.764;9.174;2022-11-11T10:00:18;13.30;99.90
674;DHT22;319;48.764;9.174;2022-11-11T10:02:49;13.20;99.70
674;DHT22;319;48.764;9.174;2022-11-11T10:05:19;13.40;99.90
674;DHT22;319;48.764;9.174;2022-11-11T10:07:50;13.50;99.60
674;DHT22;319;48.764;9.174;2022-11-11T10:10:26;13.60;99.70
674;DHT22;319;48.764;9.174;2022-11-11T10:12:57;13.70;99.50
674;DHT22;319;48.764;9.174;2022-11-11T10:15:29;13.70;99.50
674;DHT22;319;48.764;9.174;2022-11-11T10:18:14;13.80;99.50
674;DHT22;319;48.764;9.174;2022-11-11T10:20:51;14.00;99.20
674;DHT22;319;48.764;9.174;2022-11-11T10:23:24;14.00;99.10
674;DHT22;319;48.764;9.174;2022-11-11T10:25:54;14.10;99.10
674;DHT22;319;48.764;9.174;2022-11-11T10:28:25;14.00;98.80
674;DHT22;319;48.764;9.174;2022-11-11T10:30:55;14.00;98.80
674;DHT22;319;48.764;9.174;2022-11-11T10:33:26;13.90;98.60
674;DHT22;319;48.764;9.174;2022-11-11T10:35:55;13.90;98.70
674;DHT22;319;48.764;9.174;2022-11-11T10:38:32;13.90;98.60
674;DHT22;319;48.764;9.174;2022-11-11T10:41:08;13.80;98.90
674;DHT22;319;48.764;9.174;2022-11-11T10:43:39;13.70;99.00
674;DHT22;319;48.764;9.174;2022-11-11T10:46:16;13.70;99.10
674;DHT22;319;48.764;9.174;2022-11-11T10:48:51;13.70;99.20
674;DHT22;319;48.764;9.174;2022-11-11T10:51:18;13.70;98.90
674;DHT22;319;48.764;9.174;2022-11-11T10:53:55;13.80;99.00
674;DHT22;319;48.764;9.174;2022-11-11T10:56:27;13.90;98.90
674;DHT22;319;48.764;9.174;2022-11-11T10:59:00;14.00;98.90
674;DHT22;319;48.764;9.174;2022-11-11T11:01:32;14.10;98.90
674;DHT22;319;48.764;9.174;2022-11-11T11:04:03;14.10;98.70
674;DHT22;319;48.764;9.174;2022-11-11T11:06:33;14.20;98.90
674;DHT22;319;48.764;9.174;2022-11-11T11:09:07;14.20;98.70
674;DHT22;319;48.764;9.174;2022-11-11T11:11:41;14.30;98.70
674;DHT22;319;48.764;9.174;2022-11-11T11:14:16;14.30;98.60
674;DHT22;319;48.764;9.174;2022-11-11T11:16:49;14.30;98.40
674;DHT22;319;48.764;9.174;2022-11-11T11:19:21;14.50;98.50
674;DHT22;319;48.764;9.174;2022-11-11T11:21:50;14.50;98.10
674;DHT22;319;48.764;9.174;2022-11-11T11:24:19;14.60;98.10
674;DHT22;319;48.764;9.174;2022-11-11T11:26:48;14.50;98.10
674;DHT22;319;48.764;9.174;2022-11-11T11:29:23;14.70;98.20
674;DHT22;319;48.764;9.174;2022-11-11T11:31:52;14.60;98.20
674;DHT22;319;48.764;9.174;2022-11-11T11:34:19;14.60;98.30
674;DHT22;319;48.764;9.174;2022-11-11T11:36:59;14.60;98.30
674;DHT22;319;48.764;9.174;2022-11-11T11:39:33;14.70;98.50
674;DHT22;319;48.764;9.174;2022-11-11T11:42:00;14.60;98.50
674;DHT22;319;48.764;9.174;2022-11-11T11:44:29;14.70;98.40
674;DHT22;319;48.764;9.174;2022-11-11T11:47:09;14.70;98.50
674;DHT22;319;48.764;9.174;2022-11-11T11:49:48;14.70;98.40
674;DHT22;319;48.764;9.174;2022-11-11T11:52:21;14.70;98.40
674;DHT22;319;48.764;9.174;2022-11-11T11:54:58;14.60;98.70
674;DHT22;319;48.764;9.174;2022-11-11T11:57:41;14.60;98.70
674;DHT22;319;48.764;9.174;2022-11-11T12:00:15;14.60;98.70
674;DHT22;319;48.764;9.174;2022-11-11T12:03:17;14.60;98.70
674;DHT22;319;48.764;9.174;2022-11-11T12:05:57;14.60;98.90
674;DHT22;319;48.764;9.174;2022-11-11T12:08:37;14.70;98.80
674;DHT22;319;48.764;9.174;2022-11-11T12:11:14;14.80;98.70
674;DHT22;319;48.764;9.174;2022-11-11T12:14:02;15.00;98.70
674;DHT22;319;48.764;9.174;2022-11-11T12:16:36;15.10;98.50
674;DHT22;319;48.764;9.174;2022-11-11T12:19:27;15.10;98.40
674;DHT22;319;48.764;9.174;2022-11-11T12:22:03;15.20;98.50
674;DHT22;319;48.764;9.174;2022-11-11T12:24:43;15.30;98.50
674;DHT22;319;48.764;9.174;2022-11-11T12:27:18;15.30;98.30
674;DHT22;319;48.764;9.174;2022-11-11T12:30:01;15.30;98.20
674;DHT22;319;48.764;9.174;2022-11-11T12:32:45;15.20;98.30
674;DHT22;319;48.764;9.174;2022-11-11T12:35:26;15.30;98.50
674;DHT22;319;48.764;9.174;2022-11-11T12:38:08;15.30;98.60
674;DHT22;319;48.764;9.174;2022-11-11T12:40:51;15.30;98.60
674;DHT22;319;48.764;9.174;2022-11-11T12:43:27;15.30;98.60
674;DHT22;319;48.764;9.174;2022-11-11T12:46:03;15.30;98.70
674;DHT22;319;48.764;9.174;2022-11-11T12:48:40;15.30;98.70
674;DHT22;319;48.764;9.174;2022-11-11T12:51:19;15.50;98.80
674;DHT22;319;48.764;9.174;2022-11-11T12:53:53;15.50;98.80
674;DHT22;319;48.764;9.174;2022-11-11T12:56:30;15.60;98.70
674;DHT22;319;48.764;9.174;2022-11-11T12:59:06;15.60;98.70
674;DHT22;319;48.764;9.174;2022-11-11T13:01:54;15.60;98.70
674;DHT22;319;48.764;9.174;2022-11-11T13:04:34;15.60;98.70
674;DHT22;319;48.764;9.174;2022-11-11T13:07:31;15.60;98.80
674;DHT22;319;48.764;9.174;2022-11-11T13:10:12;15.60;98.80
674;DHT22;319;48.764;9.174;2022-11-11T13:12:47;15.60;98.70
674;DHT22;319;48.764;9.174;2022-11-11T13:15:22;15.60;98.90
674;DHT22;319;48.764;9.174;2022-11-11T13:18:10;15.50;99.00
674;DHT22;319;48.764;9.174;2022-11-11T13:20:43;15.50;99.10
674;DHT22;319;48.764;9.174;2022-11-11T13:23:16;15.50;99.20
674;DHT22;319;48.764;9.174;2022-11-11T13:25:49;15.60;99.20
674;DHT22;319;48.764;9.174;2022-11-11T13:28:20;15.70;99.20
674;DHT22;319;48.764;9.174;2022-11-11T13:30:56;15.80;99.10
674;DHT22;319;48.764;9.174;2022-11-11T13:33:35;15.90;98.90
674;DHT22;319;48.764;9.174;2022-11-11T13:36:05;15.90;98.60
674;DHT22;319;48.764;9.174;2022-11-11T13:38:37;16.00;98.60
674;DHT22;319;48.764;9.174;2022-11-11T13:41:06;16.00;98.50
674;DHT22;319;48.764;9.174;2022-11-11T13:43:39;16.00;98.20
674;DHT22;319;48.764;9.174;2022-11-11T13:46:25;16.00;98.20
674;DHT22;319;48.764;9.174;2022-11-11T13:48:55;16.10;98.20
674;DHT22;319;48.764;9.174;2022-11-11T13:51:25;16.10;98.10
674;DHT22;319;48.764;9.174;2022-11-11T13:53:58;16.10;98.20
674;DHT22;319;48.764;9.174;2022-11-11T13:56:30;16.00;98.20
674;DHT22;319;48.764;9.174;2022-11-11T13:58:58;16.10;98.30
674;DHT22;319;48.764;9.174;2022-11-11T14:01:32;16.10;98.30
674;DHT22;319;48.764;9.174;2022-11-11T14:04:03;16.10;98.20
674;DHT22;319;48.764;9.174;2022-11-11T14:06:54;16.10;98.20
674;DHT22;319;48.764;9.174;2022-11-11T14:09:56;16.20;98.30
674;DHT22;319;48.764;9.174;2022-11-11T14:12:42;16.10;98.30
674;DHT22;319;48.764;9.174;2022-11-11T14:18:35;16.10;98.30
674;DHT22;319;48.764;9.174;2022-11-11T14:21:03;16.00;98.20
674;DHT22;319;48.764;9.174;2022-11-11T14:23:34;16.00;98.30
674;DHT22;319;48.764;9.174;2022-11-11T14:26:29;16.00;98.20
674;DHT22;319;48.764;9.174;2022-11-11T14:28:58;15.90;98.10
674;DHT22;319;48.764;9.174;2022-11-11T14:31:54;15.90;98.30
674;DHT22;319;48.764;9.174;2022-11-11T14:34:43;15.80;98.30
674;DHT22;319;48.764;9.174;2022-11-11T14:37:22;15.80;98.40
674;DHT22;319;48.764;9.174;2022-11-11T14:39:51;15.70;98.50
674;DHT22;319;48.764;9.174;2022-11-11T14:42:45;15.60;98.50
674;DHT22;319;48.764;9.174;2022-11-11T14:48:51;15.50;98.70
674;DHT22;319;48.764;9.174;2022-11-11T14:51:50;15.50;98.90
674;DHT22;319;48.764;9.174;2022-11-11T14:54:26;15.40;99.10
674;DHT22;319;48.764;9.174;2022-11-11T14:56:59;15.40;99.40
674;DHT22;319;48.764;9.174;2022-11-11T14:59:28;15.30;99.80
674;DHT22;319;48.764;9.174;2022-11-11T15:01:57;15.20;99.90
674;DHT22;319;48.764;9.174;2022-11-11T15:04:25;15.20;99.90
674;DHT22;319;48.764;9.174;2022-11-11T15:06:57;15.00;99.90
674;DHT22;319;48.764;9.174;2022-11-11T15:09:42;14.90;99.90
674;DHT22;319;48.764;9.174;2022-11-11T15:12:20;14.70;99.90
674;DHT22;319;48.764;9.174;2022-11-11T15:14:59;14.70;99.90
674;DHT22;319;48.764;9.174;2022-11-11T15:17:36;14.60;99.90
674;DHT22;319;48.764;9.174;2022-11-11T15:20:25;14.50;99.90
674;DHT22;319;48.764;9.174;2022-11-11T15:23:02;14.30;99.90
674;DHT22;319;48.764;9.174;2022-11-11T15:25:41;14.20;99.90
674;DHT22;319;48.764;9.174;2022-11-11T15:28:19;14.00;99.90
674;DHT22;319;48.764;9.174;2022-11-11T15:31:00;14.00;99.90
674;DHT22;319;48.764;9.174;2022-11-11T15:33:41;13.80;99.90
674;DHT22;319;48.764;9.174;2022-11-11T15:36:13;13.80;99.90
674;DHT22;319;48.764;9.174;2022-11-11T15:38:41;13.70;99.90
674;DHT22;319;48.764;9.174;2022-11-11T15:41:20;13.60;99.90
674;DHT22;319;48.764;9.174;2022-11-11T15:43:48;13.60;99.90
674;DHT22;319;48.764;9.174;2022-11-11T15:46:22;13.50;99.90
674;DHT22;319;48.764;9.174;2022-11-11T15:48:52;13.40;99.90
674;DHT22;319;48.764;9.174;2022-11-11T15:51:27;13.30;99.90
674;DHT22;319;48.764;9.174;2022-11-11T15:54:08;13.30;99.90
674;DHT22;319;48.764;9.174;2022-11-11T15:56:35;13.20;99.90
674;DHT22;319;48.764;9.174;2022-11-11T15:59:15;13.10;99.90
674;DHT22;319;48.764;9.174;2022-11-11T16:01:43;13.10;99.90
674;DHT22;319;48.764;9.174;2022-11-11T16:04:16;13.10;99.90
674;DHT22;319;48.764;9.174;2022-11-11T16:06:44;13.00;99.90
674;DHT22;319;48.764;9.174;2022-11-11T16:09:12;13.00;99.90
674;DHT22;319;48.764;9.174;2022-11-11T16:11:40;12.90;99.90
674;DHT22;319;48.764;9.174;2022-11-11T16:14:26;12.80;99.90
674;DHT22;319;48.764;9.174;2022-11-11T16:16:58;12.70;99.90
674;DHT22;319;48.764;9.174;2022-11-11T16:19:32;12.70;99.90
674;DHT22;319;48.764;9.174;2022-11-11T16:22:03;12.70;99.90
674;DHT22;319;48.764;9.174;2022-11-11T16:24:34;12.60;99.90
674;DHT22;319;48.764;9.174;2022-11-11T16:27:02;12.50;99.90
674;DHT22;319;48.764;9.174;2022-11-11T16:29:33;12.50;99.90
674;DHT22;319;48.764;9.174;2022-11-11T16:32:18;12.40;99.90
674;DHT22;319;48.764;9.174;2022-11-11T16:34:45;12.30;99.90
674;DHT22;319;48.764;9.174;2022-11-11T16:37:13;12.30;99.90
674;DHT22;319;48.764;9.174;2022-11-11T16:39:41;12.40;99.90
674;DHT22;319;48.764;9.174;2022-11-11T16:42:17;12.30;99.90
674;DHT22;319;48.764;9.174;2022-11-11T16:44:52;12.20;99.90
674;DHT22;319;48.764;9.174;2022-11-11T16:47:43;12.20;99.90
674;DHT22;319;48.764;9.174;2022-11-11T16:50:17;12.20;99.90
674;DHT22;319;48.764;9.174;2022-11-11T16:52:50;12.10;99.90
674;DHT22;319;48.764;9.174;2022-11-11T16:55:25;12.10;99.90
674;DHT22;319;48.764;9.174;2022-11-11T16:57:56;12.00;99.90
674;DHT22;319;48.764;9.174;2022-11-11T17:00:23;11.90;99.90
674;DHT22;319;48.764;9.174;2022-11-11T17:03:12;11.80;99.90
674;DHT22;319;48.764;9.174;2022-11-11T17:05:47;11.80;99.90
674;DHT22;319;48.764;9.174;2022-11-11T17:08:31;11.70;99.90
674;DHT22;319;48.764;9.174;2022-11-11T17:11:00;11.70;99.90
674;DHT22;319;48.764;9.174;2022-11-11T17:13:27;11.60;99.90
674;DHT22;319;48.764;9.174;2022-11-11T17:15:56;11.50;99.90
674;DHT22;319;48.764;9.174;2022-11-11T17:18:25;11.50;99.90
674;DHT22;319;48.764;9.174;2022-11-11T17:20:52;11.50;99.90
674;DHT22;319;48.764;9.174;2022-11-11T17:23:20;11.40;99.90
674;DHT22;319;48.764;9.174;2022-11-11T17:25:47;11.40;99.90
674;DHT22;319;48.764;9.174;2022-11-11T17:28:13;11.40;99.90